Williamsport Regional Airport
KIPT : now visible

Airfield :











YOU CAN JOIN US ON...

 
LOGIN :

Register | Disclaimer

   EN    FR    IT 

 









Legend :    VFR   Marginal VFR   IFR   Intensive IFR   Very Intensive IFR
Visi :
Ceiling :
>= 8 km
>= 3000ft
5 to 8 km
1000 to 3000 ft
1500m to 5 km
500 to 1000 ft
800 to 1500m
200 to 500 ft
< 800m
< 200 ft
Symbols :   Thunderstorms  Fog  Heavy snow  Heavy precipitations  Wind > 20 kt






- Airport Elevation : 529 ft
- IATA code : IPT


KIPT - Williamsport Regional

CURRENT METAR :
  • 200038Z 00000KT 10SM BKN013 OVC022 11/08 A3000 RMK AO2 T01110083

EXPIRED METARs :
  • 192354Z VRB06G21KT 7SM OVC021 12/08 A2998 RMK AO2 SLP154 T01170083 10117 20106 53005
  • 192254Z 17013G22KT 9SM OVC025 12/08 A2997 RMK AO2 SLP148 T01170078
  • 192154Z 16011G16KT 10SM SCT016 OVC027 12/08 A2998 RMK AO2 SLP151 T01170078
  • 192136Z VRB03KT 10SM BKN016 OVC029 12/08 A2997 RMK AO2 T01170078
  • 192054Z 19012G19KT 10SM OVC031 12/08 A2997 RMK AO2 PK WND 16029/2012 SLP149 T01170078 55010
  • 191954Z 13008G19KT 10SM FEW015 OVC032 12/08 A2996 RMK AO2 PK WND 15029/1947 SLP147 T01170078

TAF KIPT
Valid from the 20 at 00:00 until the 21 at 00:00 UTC


192339Z 2000/2024 17007G15KT 6SM -SHRA BR OVC025
FM200100 18009KT 6SM -SHRA BR OVC015
TEMPO 2004/2005 OVC007
FM200700 30003KT 6SM BR SCT023 BKN070 OVC100
FM201300 29008G18KT P6SM SKC
FM201600 27015G25KT P6SM OVC050
FM202200 29016G23KT P6SM SKC
KZNY FIR / North America



MET'MAP, your aeronautical weather chart ! - Copyright ORBIFLY December 2007 - Disclaimer

ORBIFLY MET'MAP TEAM :

Programming & Development : Alexandra Zaïnal
Original concept : Baudouin d'Aumeries
Technical & hardware support : Manuel Goepfert
Assistance : Marc-Olivier Méhu




SOURCES & CREDITS :

   NOAA       Earth
Advisory